sensor_id;sensor_type;location;lat;lon;timestamp;P1;durP1;ratioP1;P2;durP2;ratioP2
30605;SDS011;17371;51.328;3.860;2022-09-27T00:02:11;4.43;;;1.13;;
30605;SDS011;17371;51.328;3.860;2022-09-27T00:04:36;3.08;;;1.02;;
30605;SDS011;17371;51.328;3.860;2022-09-27T00:07:01;8.33;;;1.03;;
30605;SDS011;17371;51.328;3.860;2022-09-27T00:09:27;10.30;;;1.40;;
30605;SDS011;17371;51.328;3.860;2022-09-27T00:11:52;9.60;;;1.37;;
30605;SDS011;17371;51.328;3.860;2022-09-27T00:14:18;15.33;;;1.70;;
30605;SDS011;17371;51.328;3.860;2022-09-27T00:16:43;11.43;;;1.40;;
30605;SDS011;17371;51.328;3.860;2022-09-27T00:19:11;1.83;;;0.80;;
30605;SDS011;17371;51.328;3.860;2022-09-27T00:21:38;11.03;;;1.60;;
30605;SDS011;17371;51.328;3.860;2022-09-27T00:24:03;14.85;;;1.25;;
30605;SDS011;17371;51.328;3.860;2022-09-27T00:26:29;9.20;;;1.20;;
30605;SDS011;17371;51.328;3.860;2022-09-27T00:28:54;8.73;;;1.10;;
30605;SDS011;17371;51.328;3.860;2022-09-27T00:31:20;7.73;;;1.07;;
30605;SDS011;17371;51.328;3.860;2022-09-27T00:33:47;16.20;;;2.00;;
30605;SDS011;17371;51.328;3.860;2022-09-27T00:36:15;15.77;;;1.37;;
30605;SDS011;17371;51.328;3.860;2022-09-27T00:38:40;8.82;;;1.23;;
30605;SDS011;17371;51.328;3.860;2022-09-27T00:41:07;6.78;;;1.00;;
30605;SDS011;17371;51.328;3.860;2022-09-27T00:43:42;10.48;;;0.80;;
30605;SDS011;17371;51.328;3.860;2022-09-27T00:46:09;2.47;;;0.82;;
30605;SDS011;17371;51.328;3.860;2022-09-27T00:48:35;5.27;;;0.63;;
30605;SDS011;17371;51.328;3.860;2022-09-27T00:51:02;3.08;;;0.70;;
30605;SDS011;17371;51.328;3.860;2022-09-27T00:53:30;6.35;;;0.82;;
30605;SDS011;17371;51.328;3.860;2022-09-27T00:56:00;13.20;;;1.67;;
30605;SDS011;17371;51.328;3.860;2022-09-27T00:58:28;6.80;;;1.03;;
30605;SDS011;17371;51.328;3.860;2022-09-27T01:00:56;4.15;;;0.90;;
30605;SDS011;17371;51.328;3.860;2022-09-27T01:03:24;16.63;;;1.40;;
30605;SDS011;17371;51.328;3.860;2022-09-27T01:05:54;3.55;;;1.15;;
30605;SDS011;17371;51.328;3.860;2022-09-27T01:08:21;5.07;;;0.90;;
30605;SDS011;17371;51.328;3.860;2022-09-27T01:10:52;4.33;;;0.87;;
30605;SDS011;17371;51.328;3.860;2022-09-27T01:13:25;7.22;;;1.00;;
30605;SDS011;17371;51.328;3.860;2022-09-27T01:15:56;8.07;;;1.30;;
30605;SDS011;17371;51.328;3.860;2022-09-27T01:18:27;4.35;;;0.95;;
30605;SDS011;17371;51.328;3.860;2022-09-27T01:21:07;8.25;;;1.17;;
30605;SDS011;17371;51.328;3.860;2022-09-27T01:26:49;8.10;;;1.10;;
30605;SDS011;17371;51.328;3.860;2022-09-27T01:29:32;8.33;;;1.03;;
30605;SDS011;17371;51.328;3.860;2022-09-27T01:32:03;9.93;;;1.05;;
30605;SDS011;17371;51.328;3.860;2022-09-27T01:34:31;7.70;;;1.73;;
30605;SDS011;17371;51.328;3.860;2022-09-27T01:37:01;10.57;;;1.45;;
30605;SDS011;17371;51.328;3.860;2022-09-27T01:39:33;7.15;;;1.40;;
30605;SDS011;17371;51.328;3.860;2022-09-27T01:42:06;9.97;;;1.10;;
30605;SDS011;17371;51.328;3.860;2022-09-27T01:44:36;7.15;;;1.35;;
30605;SDS011;17371;51.328;3.860;2022-09-27T01:47:04;10.73;;;1.27;;
30605;SDS011;17371;51.328;3.860;2022-09-27T01:49:34;9.20;;;1.40;;
30605;SDS011;17371;51.328;3.860;2022-09-27T01:52:09;5.28;;;1.20;;
30605;SDS011;17371;51.328;3.860;2022-09-27T01:54:37;12.17;;;1.50;;
30605;SDS011;17371;51.328;3.860;2022-09-27T01:57:05;6.43;;;1.30;;
30605;SDS011;17371;51.328;3.860;2022-09-27T01:59:34;8.32;;;1.10;;
30605;SDS011;17371;51.328;3.860;2022-09-27T02:02:05;4.63;;;1.20;;
30605;SDS011;17371;51.328;3.860;2022-09-27T02:04:32;7.53;;;1.33;;
30605;SDS011;17371;51.328;3.860;2022-09-27T02:07:02;12.67;;;1.60;;
30605;SDS011;17371;51.328;3.860;2022-09-27T02:09:29;4.05;;;1.00;;
30605;SDS011;17371;51.328;3.860;2022-09-27T02:12:00;4.80;;;1.25;;
30605;SDS011;17371;51.328;3.860;2022-09-27T02:14:30;7.72;;;1.15;;
30605;SDS011;17371;51.328;3.860;2022-09-27T02:16:59;4.53;;;1.20;;
30605;SDS011;17371;51.328;3.860;2022-09-27T02:19:34;9.03;;;1.50;;
30605;SDS011;17371;51.328;3.860;2022-09-27T02:22:05;9.40;;;1.40;;
30605;SDS011;17371;51.328;3.860;2022-09-27T02:24:36;4.10;;;1.20;;
30605;SDS011;17371;51.328;3.860;2022-09-27T02:27:05;8.20;;;1.35;;
30605;SDS011;17371;51.328;3.860;2022-09-27T02:29:36;8.68;;;1.33;;
30605;SDS011;17371;51.328;3.860;2022-09-27T02:32:05;6.27;;;1.07;;
30605;SDS011;17371;51.328;3.860;2022-09-27T02:34:31;6.53;;;1.27;;
30605;SDS011;17371;51.328;3.860;2022-09-27T02:36:58;8.27;;;1.10;;
30605;SDS011;17371;51.328;3.860;2022-09-27T02:39:23;3.97;;;1.10;;
30605;SDS011;17371;51.328;3.860;2022-09-27T02:41:49;6.82;;;1.30;;
30605;SDS011;17371;51.328;3.860;2022-09-27T02:44:14;10.90;;;1.47;;
30605;SDS011;17371;51.328;3.860;2022-09-27T02:46:47;4.93;;;1.25;;
30605;SDS011;17371;51.328;3.860;2022-09-27T02:49:26;6.43;;;1.43;;
30605;SDS011;17371;51.328;3.860;2022-09-27T02:51:57;8.32;;;1.60;;
30605;SDS011;17371;51.328;3.860;2022-09-27T02:54:29;6.43;;;1.38;;
30605;SDS011;17371;51.328;3.860;2022-09-27T02:57:01;6.57;;;1.20;;
30605;SDS011;17371;51.328;3.860;2022-09-27T02:59:34;6.43;;;1.60;;
30605;SDS011;17371;51.328;3.860;2022-09-27T03:02:07;16.03;;;1.60;;
30605;SDS011;17371;51.328;3.860;2022-09-27T03:04:38;8.23;;;1.15;;
30605;SDS011;17371;51.328;3.860;2022-09-27T03:07:06;9.40;;;1.73;;
30605;SDS011;17371;51.328;3.860;2022-09-27T03:09:39;4.13;;;1.35;;
30605;SDS011;17371;51.328;3.860;2022-09-27T03:12:06;8.27;;;1.60;;
30605;SDS011;17371;51.328;3.860;2022-09-27T03:14:31;6.15;;;1.48;;
30605;SDS011;17371;51.328;3.860;2022-09-27T03:16:57;3.93;;;1.40;;
30605;SDS011;17371;51.328;3.860;2022-09-27T03:19:22;3.33;;;1.27;;
30605;SDS011;17371;51.328;3.860;2022-09-27T03:21:49;3.37;;;1.37;;
30605;SDS011;17371;51.328;3.860;2022-09-27T03:24:14;7.68;;;1.75;;
30605;SDS011;17371;51.328;3.860;2022-09-27T03:26:40;2.13;;;1.50;;
30605;SDS011;17371;51.328;3.860;2022-09-27T03:29:05;2.90;;;1.67;;
30605;SDS011;17371;51.328;3.860;2022-09-27T03:31:30;6.33;;;1.87;;
30605;SDS011;17371;51.328;3.860;2022-09-27T03:33:56;4.78;;;2.08;;
30605;SDS011;17371;51.328;3.860;2022-09-27T03:36:21;6.75;;;1.33;;
30605;SDS011;17371;51.328;3.860;2022-09-27T03:38:48;6.43;;;1.60;;
30605;SDS011;17371;51.328;3.860;2022-09-27T03:41:13;4.65;;;1.70;;
30605;SDS011;17371;51.328;3.860;2022-09-27T03:43:39;5.03;;;1.60;;
30605;SDS011;17371;51.328;3.860;2022-09-27T03:46:04;4.17;;;1.30;;
30605;SDS011;17371;51.328;3.860;2022-09-27T03:48:30;2.13;;;1.20;;
30605;SDS011;17371;51.328;3.860;2022-09-27T03:50:55;4.85;;;1.35;;
30605;SDS011;17371;51.328;3.860;2022-09-27T03:53:21;2.13;;;1.20;;
30605;SDS011;17371;51.328;3.860;2022-09-27T03:55:47;4.90;;;1.50;;
30605;SDS011;17371;51.328;3.860;2022-09-27T03:58:13;8.52;;;1.80;;
30605;SDS011;17371;51.328;3.860;2022-09-27T04:00:38;4.60;;;1.47;;
30605;SDS011;17371;51.328;3.860;2022-09-27T04:03:04;6.73;;;1.73;;
30605;SDS011;17371;51.328;3.860;2022-09-27T04:05:29;5.35;;;1.40;;
30605;SDS011;17371;51.328;3.860;2022-09-27T04:07:54;5.72;;;1.50;;
30605;SDS011;17371;51.328;3.860;2022-09-27T04:10:20;5.47;;;1.30;;
30605;SDS011;17371;51.328;3.860;2022-09-27T04:12:47;9.03;;;1.83;;
30605;SDS011;17371;51.328;3.860;2022-09-27T04:15:12;7.45;;;2.30;;
30605;SDS011;17371;51.328;3.860;2022-09-27T04:17:39;9.37;;;2.10;;
30605;SDS011;17371;51.328;3.860;2022-09-27T04:20:05;6.43;;;2.55;;
30605;SDS011;17371;51.328;3.860;2022-09-27T04:22:31;9.20;;;2.20;;
30605;SDS011;17371;51.328;3.860;2022-09-27T04:24:56;5.43;;;1.77;;
30605;SDS011;17371;51.328;3.860;2022-09-27T04:27:22;7.60;;;1.73;;
30605;SDS011;17371;51.328;3.860;2022-09-27T04:29:48;4.20;;;1.40;;
30605;SDS011;17371;51.328;3.860;2022-09-27T04:32:14;7.18;;;1.80;;
30605;SDS011;17371;51.328;3.860;2022-09-27T04:34:39;8.07;;;1.90;;
30605;SDS011;17371;51.328;3.860;2022-09-27T04:37:05;8.83;;;2.23;;
30605;SDS011;17371;51.328;3.860;2022-09-27T04:39:30;6.68;;;2.30;;
30605;SDS011;17371;51.328;3.860;2022-09-27T04:41:55;10.25;;;2.20;;
30605;SDS011;17371;51.328;3.860;2022-09-27T04:44:21;8.07;;;2.63;;
30605;SDS011;17371;51.328;3.860;2022-09-27T04:46:47;7.60;;;2.30;;
30605;SDS011;17371;51.328;3.860;2022-09-27T04:49:13;10.50;;;2.38;;
30605;SDS011;17371;51.328;3.860;2022-09-27T04:51:38;8.97;;;2.27;;
30605;SDS011;17371;51.328;3.860;2022-09-27T04:54:04;7.57;;;2.30;;
30605;SDS011;17371;51.328;3.860;2022-09-27T04:56:29;10.93;;;2.50;;
30605;SDS011;17371;51.328;3.860;2022-09-27T04:58:54;18.43;;;3.37;;
30605;SDS011;17371;51.328;3.860;2022-09-27T05:01:20;40.72;;;3.97;;
30605;SDS011;17371;51.328;3.860;2022-09-27T05:03:46;11.33;;;3.50;;
30605;SDS011;17371;51.328;3.860;2022-09-27T05:06:12;23.20;;;4.00;;
30605;SDS011;17371;51.328;3.860;2022-09-27T05:08:37;15.98;;;3.50;;
30605;SDS011;17371;51.328;3.860;2022-09-27T05:11:03;13.43;;;3.80;;
30605;SDS011;17371;51.328;3.860;2022-09-27T05:13:28;15.60;;;4.27;;
30605;SDS011;17371;51.328;3.860;2022-09-27T05:15:54;17.33;;;4.15;;
30605;SDS011;17371;51.328;3.860;2022-09-27T05:18:19;14.98;;;4.40;;
30605;SDS011;17371;51.328;3.860;2022-09-27T05:20:46;15.10;;;4.67;;
30605;SDS011;17371;51.328;3.860;2022-09-27T05:23:11;15.95;;;4.28;;
30605;SDS011;17371;51.328;3.860;2022-09-27T05:25:37;15.23;;;4.70;;
30605;SDS011;17371;51.328;3.860;2022-09-27T05:28:02;11.57;;;4.33;;
30605;SDS011;17371;51.328;3.860;2022-09-27T05:30:28;16.83;;;4.03;;
30605;SDS011;17371;51.328;3.860;2022-09-27T05:32:53;7.30;;;2.78;;
30605;SDS011;17371;51.328;3.860;2022-09-27T05:35:19;6.20;;;1.93;;
30605;SDS011;17371;51.328;3.860;2022-09-27T05:37:51;4.77;;;1.87;;
30605;SDS011;17371;51.328;3.860;2022-09-27T05:40:17;5.43;;;1.60;;
30605;SDS011;17371;51.328;3.860;2022-09-27T05:42:42;2.90;;;1.20;;
30605;SDS011;17371;51.328;3.860;2022-09-27T05:45:08;4.05;;;1.40;;
30605;SDS011;17371;51.328;3.860;2022-09-27T05:47:34;3.47;;;1.43;;
30605;SDS011;17371;51.328;3.860;2022-09-27T05:49:59;2.90;;;1.45;;
30605;SDS011;17371;51.328;3.860;2022-09-27T05:52:25;6.40;;;1.55;;
30605;SDS011;17371;51.328;3.860;2022-09-27T05:54:52;7.93;;;1.80;;
30605;SDS011;17371;51.328;3.860;2022-09-27T05:57:17;7.32;;;1.88;;
30605;SDS011;17371;51.328;3.860;2022-09-27T05:59:42;6.73;;;1.80;;
30605;SDS011;17371;51.328;3.860;2022-09-27T06:02:08;13.33;;;2.00;;
30605;SDS011;17371;51.328;3.860;2022-09-27T06:04:34;3.83;;;1.58;;
30605;SDS011;17371;51.328;3.860;2022-09-27T06:06:59;7.77;;;1.87;;
30605;SDS011;17371;51.328;3.860;2022-09-27T06:09:24;6.10;;;1.70;;
30605;SDS011;17371;51.328;3.860;2022-09-27T06:11:51;7.00;;;1.63;;
30605;SDS011;17371;51.328;3.860;2022-09-27T06:14:17;4.53;;;1.73;;
30605;SDS011;17371;51.328;3.860;2022-09-27T06:16:42;11.73;;;1.58;;
30605;SDS011;17371;51.328;3.860;2022-09-27T06:19:07;5.72;;;1.55;;
30605;SDS011;17371;51.328;3.860;2022-09-27T06:21:33;8.17;;;1.60;;
30605;SDS011;17371;51.328;3.860;2022-09-27T06:23:58;8.77;;;1.77;;
30605;SDS011;17371;51.328;3.860;2022-09-27T06:26:24;6.50;;;1.17;;
30605;SDS011;17371;51.328;3.860;2022-09-27T06:28:51;8.73;;;1.63;;
30605;SDS011;17371;51.328;3.860;2022-09-27T06:31:16;9.45;;;1.60;;
30605;SDS011;17371;51.328;3.860;2022-09-27T06:33:41;7.77;;;1.20;;
30605;SDS011;17371;51.328;3.860;2022-09-27T06:36:07;7.63;;;1.40;;
30605;SDS011;17371;51.328;3.860;2022-09-27T06:38:32;4.63;;;1.20;;
30605;SDS011;17371;51.328;3.860;2022-09-27T06:41:00;11.57;;;1.75;;
30605;SDS011;17371;51.328;3.860;2022-09-27T06:43:25;4.57;;;1.35;;
30605;SDS011;17371;51.328;3.860;2022-09-27T06:45:52;6.63;;;1.60;;
30605;SDS011;17371;51.328;3.860;2022-09-27T06:48:18;7.20;;;1.50;;
30605;SDS011;17371;51.328;3.860;2022-09-27T06:50:44;6.82;;;1.58;;
30605;SDS011;17371;51.328;3.860;2022-09-27T06:53:11;11.13;;;2.27;;
30605;SDS011;17371;51.328;3.860;2022-09-27T06:55:37;7.80;;;2.50;;
30605;SDS011;17371;51.328;3.860;2022-09-27T06:58:03;7.53;;;2.83;;
30605;SDS011;17371;51.328;3.860;2022-09-27T07:00:29;8.77;;;2.75;;
30605;SDS011;17371;51.328;3.860;2022-09-27T07:02:57;11.33;;;3.17;;
30605;SDS011;17371;51.328;3.860;2022-09-27T07:05:22;7.57;;;3.17;;
30605;SDS011;17371;51.328;3.860;2022-09-27T07:07:48;15.57;;;3.70;;
30605;SDS011;17371;51.328;3.860;2022-09-27T07:10:13;9.18;;;4.15;;
30605;SDS011;17371;51.328;3.860;2022-09-27T07:12:39;9.70;;;4.37;;
30605;SDS011;17371;51.328;3.860;2022-09-27T07:15:04;15.73;;;4.93;;
30605;SDS011;17371;51.328;3.860;2022-09-27T07:17:30;10.82;;;4.53;;
30605;SDS011;17371;51.328;3.860;2022-09-27T07:19:57;14.57;;;6.13;;
30605;SDS011;17371;51.328;3.860;2022-09-27T07:22:22;14.38;;;6.65;;
30605;SDS011;17371;51.328;3.860;2022-09-27T07:24:48;20.33;;;6.33;;
30605;SDS011;17371;51.328;3.860;2022-09-27T07:27:14;15.30;;;6.47;;
30605;SDS011;17371;51.328;3.860;2022-09-27T07:29:39;18.55;;;6.57;;
30605;SDS011;17371;51.328;3.860;2022-09-27T07:32:05;17.95;;;6.20;;
30605;SDS011;17371;51.328;3.860;2022-09-27T07:34:31;15.25;;;6.13;;
30605;SDS011;17371;51.328;3.860;2022-09-27T07:36:58;18.60;;;6.80;;
30605;SDS011;17371;51.328;3.860;2022-09-27T07:39:24;16.80;;;6.38;;
30605;SDS011;17371;51.328;3.860;2022-09-27T07:41:49;19.00;;;7.80;;
30605;SDS011;17371;51.328;3.860;2022-09-27T07:44:15;21.05;;;6.93;;
30605;SDS011;17371;51.328;3.860;2022-09-27T07:46:40;15.37;;;6.83;;
30605;SDS011;17371;51.328;3.860;2022-09-27T07:49:05;15.30;;;6.37;;
30605;SDS011;17371;51.328;3.860;2022-09-27T07:51:31;16.23;;;7.43;;
30605;SDS011;17371;51.328;3.860;2022-09-27T07:53:58;17.13;;;7.53;;
30605;SDS011;17371;51.328;3.860;2022-09-27T07:56:23;20.80;;;7.30;;
30605;SDS011;17371;51.328;3.860;2022-09-27T07:58:48;15.50;;;7.10;;
30605;SDS011;17371;51.328;3.860;2022-09-27T08:01:14;22.30;;;7.67;;
30605;SDS011;17371;51.328;3.860;2022-09-27T08:03:40;20.23;;;7.57;;
30605;SDS011;17371;51.328;3.860;2022-09-27T08:06:06;19.75;;;6.88;;
30605;SDS011;17371;51.328;3.860;2022-09-27T08:08:32;18.60;;;7.00;;
30605;SDS011;17371;51.328;3.860;2022-09-27T08:10:58;18.05;;;6.65;;
30605;SDS011;17371;51.328;3.860;2022-09-27T08:13:24;15.83;;;6.30;;
30605;SDS011;17371;51.328;3.860;2022-09-27T08:15:49;14.40;;;6.00;;
30605;SDS011;17371;51.328;3.860;2022-09-27T08:18:15;13.73;;;5.23;;
30605;SDS011;17371;51.328;3.860;2022-09-27T08:20:40;12.03;;;5.17;;
30605;SDS011;17371;51.328;3.860;2022-09-27T08:23:05;13.50;;;4.97;;
30605;SDS011;17371;51.328;3.860;2022-09-27T08:25:31;16.03;;;5.23;;
30605;SDS011;17371;51.328;3.860;2022-09-27T08:27:58;15.63;;;4.82;;
30605;SDS011;17371;51.328;3.860;2022-09-27T08:30:24;15.30;;;4.80;;
30605;SDS011;17371;51.328;3.860;2022-09-27T08:32:53;12.48;;;4.55;;
30605;SDS011;17371;51.328;3.860;2022-09-27T08:35:19;17.35;;;5.40;;
30605;SDS011;17371;51.328;3.860;2022-09-27T08:37:51;13.40;;;4.63;;
30605;SDS011;17371;51.328;3.860;2022-09-27T08:40:17;12.65;;;3.90;;
30605;SDS011;17371;51.328;3.860;2022-09-27T08:42:44;13.67;;;4.13;;
30605;SDS011;17371;51.328;3.860;2022-09-27T08:45:12;12.05;;;3.47;;
30605;SDS011;17371;51.328;3.860;2022-09-27T08:47:41;14.10;;;2.85;;
30605;SDS011;17371;51.328;3.860;2022-09-27T08:50:13;10.80;;;2.47;;
30605;SDS011;17371;51.328;3.860;2022-09-27T08:52:45;7.85;;;2.33;;
30605;SDS011;17371;51.328;3.860;2022-09-27T08:55:17;12.70;;;2.28;;
30605;SDS011;17371;51.328;3.860;2022-09-27T08:57:45;9.73;;;1.70;;
30605;SDS011;17371;51.328;3.860;2022-09-27T09:00:18;10.75;;;2.88;;
30605;SDS011;17371;51.328;3.860;2022-09-27T09:02:43;12.63;;;2.40;;
30605;SDS011;17371;51.328;3.860;2022-09-27T09:05:09;18.02;;;2.50;;
30605;SDS011;17371;51.328;3.860;2022-09-27T09:07:41;9.17;;;1.97;;
30605;SDS011;17371;51.328;3.860;2022-09-27T09:10:26;10.77;;;1.92;;
30605;SDS011;17371;51.328;3.860;2022-09-27T09:12:59;6.22;;;1.70;;
30605;SDS011;17371;51.328;3.860;2022-09-27T09:15:33;10.00;;;2.33;;
30605;SDS011;17371;51.328;3.860;2022-09-27T09:18:06;10.38;;;2.33;;
30605;SDS011;17371;51.328;3.860;2022-09-27T09:20:50;9.43;;;1.97;;
30605;SDS011;17371;51.328;3.860;2022-09-27T09:23:23;8.32;;;1.10;;
30605;SDS011;17371;51.328;3.860;2022-09-27T09:25:56;10.00;;;1.80;;
30605;SDS011;17371;51.328;3.860;2022-09-27T09:28:28;9.23;;;2.00;;
30605;SDS011;17371;51.328;3.860;2022-09-27T09:31:03;6.80;;;1.52;;
30605;SDS011;17371;51.328;3.860;2022-09-27T09:33:33;5.57;;;1.70;;
30605;SDS011;17371;51.328;3.860;2022-09-27T09:36:02;5.63;;;1.35;;
30605;SDS011;17371;51.328;3.860;2022-09-27T09:38:33;5.55;;;1.52;;
30605;SDS011;17371;51.328;3.860;2022-09-27T09:41:02;6.68;;;1.60;;
30605;SDS011;17371;51.328;3.860;2022-09-27T09:43:31;7.50;;;1.60;;
30605;SDS011;17371;51.328;3.860;2022-09-27T09:46:02;7.67;;;1.40;;
30605;SDS011;17371;51.328;3.860;2022-09-27T09:48:33;3.97;;;1.48;;
30605;SDS011;17371;51.328;3.860;2022-09-27T09:51:04;5.15;;;1.40;;
30605;SDS011;17371;51.328;3.860;2022-09-27T09:53:33;4.75;;;1.60;;
30605;SDS011;17371;51.328;3.860;2022-09-27T09:56:04;9.02;;;1.60;;
30605;SDS011;17371;51.328;3.860;2022-09-27T09:58:33;2.47;;;1.20;;
30605;SDS011;17371;51.328;3.860;2022-09-27T10:01:10;6.95;;;1.90;;
30605;SDS011;17371;51.328;3.860;2022-09-27T10:03:39;10.32;;;1.70;;
30605;SDS011;17371;51.328;3.860;2022-09-27T10:06:07;7.32;;;1.70;;
30605;SDS011;17371;51.328;3.860;2022-09-27T10:08:33;6.07;;;1.00;;
30605;SDS011;17371;51.328;3.860;2022-09-27T10:10:58;6.97;;;1.53;;
30605;SDS011;17371;51.328;3.860;2022-09-27T10:13:24;8.07;;;1.67;;
30605;SDS011;17371;51.328;3.860;2022-09-27T10:15:52;6.80;;;1.60;;
30605;SDS011;17371;51.328;3.860;2022-09-27T10:18:21;3.90;;;1.42;;
30605;SDS011;17371;51.328;3.860;2022-09-27T10:20:48;2.88;;;1.27;;
30605;SDS011;17371;51.328;3.860;2022-09-27T10:23:16;4.70;;;1.50;;
30605;SDS011;17371;51.328;3.860;2022-09-27T10:25:46;7.13;;;1.40;;
30605;SDS011;17371;51.328;3.860;2022-09-27T10:28:28;4.03;;;1.27;;
30605;SDS011;17371;51.328;3.860;2022-09-27T10:30:55;3.30;;;1.17;;
30605;SDS011;17371;51.328;3.860;2022-09-27T10:33:22;4.13;;;1.58;;
30605;SDS011;17371;51.328;3.860;2022-09-27T10:35:49;3.40;;;1.20;;
30605;SDS011;17371;51.328;3.860;2022-09-27T10:38:22;9.57;;;1.60;;
30605;SDS011;17371;51.328;3.860;2022-09-27T10:40:49;5.93;;;1.60;;
30605;SDS011;17371;51.328;3.860;2022-09-27T10:43:26;6.63;;;1.25;;
30605;SDS011;17371;51.328;3.860;2022-09-27T10:45:58;8.73;;;1.40;;
30605;SDS011;17371;51.328;3.860;2022-09-27T10:48:30;5.23;;;1.33;;
30605;SDS011;17371;51.328;3.860;2022-09-27T10:50:56;4.57;;;1.33;;
30605;SDS011;17371;51.328;3.860;2022-09-27T10:53:22;3.63;;;1.33;;
30605;SDS011;17371;51.328;3.860;2022-09-27T10:55:47;5.87;;;1.40;;
30605;SDS011;17371;51.328;3.860;2022-09-27T10:58:15;5.53;;;1.20;;
30605;SDS011;17371;51.328;3.860;2022-09-27T11:00:42;7.75;;;2.08;;
30605;SDS011;17371;51.328;3.860;2022-09-27T11:03:12;4.40;;;1.40;;
30605;SDS011;17371;51.328;3.860;2022-09-27T11:05:40;6.03;;;1.75;;
30605;SDS011;17371;51.328;3.860;2022-09-27T11:08:19;8.10;;;1.40;;
30605;SDS011;17371;51.328;3.860;2022-09-27T11:10:58;5.35;;;1.38;;
30605;SDS011;17371;51.328;3.860;2022-09-27T11:13:25;5.38;;;1.40;;
30605;SDS011;17371;51.328;3.860;2022-09-27T11:15:54;6.77;;;1.10;;
30605;SDS011;17371;51.328;3.860;2022-09-27T11:18:29;5.72;;;1.30;;
30605;SDS011;17371;51.328;3.860;2022-09-27T11:21:01;3.90;;;1.30;;
30605;SDS011;17371;51.328;3.860;2022-09-27T11:23:38;7.60;;;1.27;;
30605;SDS011;17371;51.328;3.860;2022-09-27T11:26:15;9.10;;;1.27;;
30605;SDS011;17371;51.328;3.860;2022-09-27T11:28:50;5.47;;;0.90;;
30605;SDS011;17371;51.328;3.860;2022-09-27T11:31:23;7.07;;;1.38;;
30605;SDS011;17371;51.328;3.860;2022-09-27T11:36:50;8.82;;;1.38;;
30605;SDS011;17371;51.328;3.860;2022-09-27T11:39:22;7.40;;;1.63;;
30605;SDS011;17371;51.328;3.860;2022-09-27T11:41:55;5.03;;;1.20;;
30605;SDS011;17371;51.328;3.860;2022-09-27T11:44:39;7.25;;;1.50;;
30605;SDS011;17371;51.328;3.860;2022-09-27T11:47:12;8.13;;;1.20;;
30605;SDS011;17371;51.328;3.860;2022-09-27T11:52:48;6.43;;;1.45;;
30605;SDS011;17371;51.328;3.860;2022-09-27T11:55:22;6.85;;;1.52;;
30605;SDS011;17371;51.328;3.860;2022-09-27T11:57:55;4.50;;;1.20;;
30605;SDS011;17371;51.328;3.860;2022-09-27T12:00:27;8.50;;;1.17;;
30605;SDS011;17371;51.328;3.860;2022-09-27T12:03:03;10.35;;;1.15;;
30605;SDS011;17371;51.328;3.860;2022-09-27T12:05:51;6.65;;;1.75;;
30605;SDS011;17371;51.328;3.860;2022-09-27T12:08:34;6.22;;;1.42;;
30605;SDS011;17371;51.328;3.860;2022-09-27T12:11:08;8.60;;;1.73;;
30605;SDS011;17371;51.328;3.860;2022-09-27T12:13:37;10.47;;;1.40;;
30605;SDS011;17371;51.328;3.860;2022-09-27T12:16:04;9.13;;;1.40;;
30605;SDS011;17371;51.328;3.860;2022-09-27T12:18:30;4.47;;;1.38;;
30605;SDS011;17371;51.328;3.860;2022-09-27T12:20:59;5.93;;;1.30;;
30605;SDS011;17371;51.328;3.860;2022-09-27T12:23:28;12.27;;;1.63;;
30605;SDS011;17371;51.328;3.860;2022-09-27T12:25:59;8.25;;;1.45;;
30605;SDS011;17371;51.328;3.860;2022-09-27T12:28:30;7.82;;;2.05;;
30605;SDS011;17371;51.328;3.860;2022-09-27T12:31:02;7.18;;;1.60;;
30605;SDS011;17371;51.328;3.860;2022-09-27T12:33:31;7.53;;;1.40;;
30605;SDS011;17371;51.328;3.860;2022-09-27T12:36:01;10.27;;;1.40;;
30605;SDS011;17371;51.328;3.860;2022-09-27T12:38:33;7.70;;;1.45;;
30605;SDS011;17371;51.328;3.860;2022-09-27T12:41:02;9.10;;;2.03;;
30605;SDS011;17371;51.328;3.860;2022-09-27T12:43:29;5.40;;;1.50;;
30605;SDS011;17371;51.328;3.860;2022-09-27T12:45:57;8.40;;;1.87;;
30605;SDS011;17371;51.328;3.860;2022-09-27T12:48:32;10.25;;;1.70;;
30605;SDS011;17371;51.328;3.860;2022-09-27T12:51:02;10.27;;;2.10;;
30605;SDS011;17371;51.328;3.860;2022-09-27T12:53:34;11.20;;;1.92;;
30605;SDS011;17371;51.328;3.860;2022-09-27T12:56:15;8.93;;;1.50;;
30605;SDS011;17371;51.328;3.860;2022-09-27T13:01:48;6.00;;;1.90;;
30605;SDS011;17371;51.328;3.860;2022-09-27T13:04:23;5.97;;;1.38;;
30605;SDS011;17371;51.328;3.860;2022-09-27T13:07:14;7.22;;;1.48;;
30605;SDS011;17371;51.328;3.860;2022-09-27T13:09:50;11.27;;;1.60;;
30605;SDS011;17371;51.328;3.860;2022-09-27T13:12:24;4.20;;;1.05;;
30605;SDS011;17371;51.328;3.860;2022-09-27T13:14:56;5.35;;;1.13;;
30605;SDS011;17371;51.328;3.860;2022-09-27T13:17:30;5.90;;;1.02;;
30605;SDS011;17371;51.328;3.860;2022-09-27T13:22:57;2.77;;;0.80;;
30605;SDS011;17371;51.328;3.860;2022-09-27T13:30:56;4.72;;;0.95;;
30605;SDS011;17371;51.328;3.860;2022-09-27T13:36:15;2.97;;;0.87;;
30605;SDS011;17371;51.328;3.860;2022-09-27T13:38:50;3.65;;;1.10;;
30605;SDS011;17371;51.328;3.860;2022-09-27T13:41:19;3.97;;;1.00;;
30605;SDS011;17371;51.328;3.860;2022-09-27T13:43:57;3.65;;;0.82;;
30605;SDS011;17371;51.328;3.860;2022-09-27T13:46:26;2.45;;;0.88;;
30605;SDS011;17371;51.328;3.860;2022-09-27T13:48:53;1.77;;;0.93;;
30605;SDS011;17371;51.328;3.860;2022-09-27T13:51:23;4.82;;;1.25;;
30605;SDS011;17371;51.328;3.860;2022-09-27T13:53:56;4.88;;;1.45;;
30605;SDS011;17371;51.328;3.860;2022-09-27T13:59:19;3.03;;;0.98;;
30605;SDS011;17371;51.328;3.860;2022-09-27T14:01:48;4.50;;;1.00;;
30605;SDS011;17371;51.328;3.860;2022-09-27T14:04:16;6.40;;;1.20;;
30605;SDS011;17371;51.328;3.860;2022-09-27T14:06:43;7.93;;;1.33;;
30605;SDS011;17371;51.328;3.860;2022-09-27T14:09:13;7.13;;;1.00;;
30605;SDS011;17371;51.328;3.860;2022-09-27T14:11:41;4.18;;;1.10;;
30605;SDS011;17371;51.328;3.860;2022-09-27T14:14:14;8.40;;;1.17;;
30605;SDS011;17371;51.328;3.860;2022-09-27T14:16:42;6.40;;;1.60;;
30605;SDS011;17371;51.328;3.860;2022-09-27T14:19:11;4.78;;;1.25;;
30605;SDS011;17371;51.328;3.860;2022-09-27T14:21:38;3.60;;;1.40;;
30605;SDS011;17371;51.328;3.860;2022-09-27T14:24:18;4.20;;;1.53;;
30605;SDS011;17371;51.328;3.860;2022-09-27T14:27:03;5.90;;;1.70;;
30605;SDS011;17371;51.328;3.860;2022-09-27T14:29:32;5.20;;;1.67;;
30605;SDS011;17371;51.328;3.860;2022-09-27T14:32:02;7.80;;;1.40;;
30605;SDS011;17371;51.328;3.860;2022-09-27T14:34:28;5.73;;;1.73;;
30605;SDS011;17371;51.328;3.860;2022-09-27T14:36:54;7.28;;;1.30;;
30605;SDS011;17371;51.328;3.860;2022-09-27T14:39:20;8.47;;;1.73;;
30605;SDS011;17371;51.328;3.860;2022-09-27T14:41:47;10.65;;;3.45;;
30605;SDS011;17371;51.328;3.860;2022-09-27T14:44:13;6.27;;;2.47;;
30605;SDS011;17371;51.328;3.860;2022-09-27T14:46:41;8.48;;;1.90;;
30605;SDS011;17371;51.328;3.860;2022-09-27T14:49:17;8.25;;;1.70;;
30605;SDS011;17371;51.328;3.860;2022-09-27T14:51:49;7.80;;;2.10;;
30605;SDS011;17371;51.328;3.860;2022-09-27T14:54:18;7.35;;;1.70;;
30605;SDS011;17371;51.328;3.860;2022-09-27T14:56:45;11.30;;;2.03;;
30605;SDS011;17371;51.328;3.860;2022-09-27T14:59:13;6.78;;;1.70;;
30605;SDS011;17371;51.328;3.860;2022-09-27T15:01:40;9.30;;;1.87;;
30605;SDS011;17371;51.328;3.860;2022-09-27T15:04:12;5.82;;;1.65;;
30605;SDS011;17371;51.328;3.860;2022-09-27T15:06:39;11.25;;;2.53;;
30605;SDS011;17371;51.328;3.860;2022-09-27T15:09:04;9.23;;;1.93;;
30605;SDS011;17371;51.328;3.860;2022-09-27T15:11:31;5.43;;;1.48;;
30605;SDS011;17371;51.328;3.860;2022-09-27T15:13:56;7.82;;;1.20;;
30605;SDS011;17371;51.328;3.860;2022-09-27T15:16:22;4.80;;;1.10;;
30605;SDS011;17371;51.328;3.860;2022-09-27T15:18:56;7.28;;;1.33;;